Wenonah, NJ (08090)

1:50 AM EST on February 10, 2016 (GMT -0500)
Lakes At Bankbridge | | Change Station
CLOSE
Current Station
Personal Weather Station
Location: Wenonah, NJ
Elevation: 89 ft
Nearby Weather Stations
Active Advisory: Special Statement Active Notice: Public Information Statement

Elev 89 ft 39.79 °N, 75.14 °W | Updated 27 seconds ago

Overcast
Overcast
32.7 °F
Feels Like 33 °F
N
3.0
Wind Variable Wind from ESE
Gusts 10.0 mph

Today
High -- | Low -- °F
--% Chance of Precip.
Yesterday
High -- | Low -- °F
Precip. -- in
Pressure 29.64 in
Visibility 7.0 miles
Clouds Mostly Cloudy 1500 ft
Mostly Cloudy 3000 ft
Overcast 4500 ft
Windchill 33 °F
Dew Point 30 °F
Humidity 89%
Rainfall 0.00 in
Snow Depth Not available.
6:59 AM 5:30 PM
Waxing Crescent, 4% visible
METAR KPHL 100554Z 28008KT 7SM BKN015 BKN030 OVC045 01/M02 A2963 RMK AO2 SLP035 60002 T00111017 10017 20011 53001 $
Pressure 29.64 in
Visibility 7.0 miles
Clouds Mostly Cloudy 1500 ft
Mostly Cloudy 3000 ft
Overcast 4500 ft
Windchill 33 °F
Dew Point 30 °F
Humidity 89%
Rainfall 0.00 in
Snow Depth Not available.
6:59 AM 5:30 PM
Waxing Crescent, 4% visible
METAR KPHL 100554Z 28008KT 7SM BKN015 BKN030 OVC045 01/M02 A2963 RMK AO2 SLP035 60002 T00111017 10017 20011 53001 $

10-Day Weather Forecast

Almanac

Astronomy

Feb. 10, 2016 Rise Set
Actual Time
Civil Twilight
Nautical Twilight
Astronomical Twilight
Moon
Length of Visible Light
Length of Day
Tomorrow will be .
, % of the Moon is Illuminated

Today's Extremes

State Highs State Lows

Community

WunderPhotos

Upload Photos

1,891,826 photos uploaded!

WunderBlog® & News

Nearby

Air Quality

  Air Quality AQ Index Pollutant
Not available.

Snow Depth

Station Depth Elevation

Earthquake Activity

City Distance Mag. Time & Date
Minimum magnitude displayed is 2.5.

Coastal Water Temperatures

Place Temperature

Stations

Nearby Weather Stations

Station Location Temp. Windchill Dew Point Humidity Wind Precip. Elev Updated Type
                   

Watches & Warnings

Special Statement
Issued: 11:08 PM EST Feb. 9, 2016 – National Weather Service

... Refreezing on area roads possibile overnight along with patchy
light snow...

Temperatures will fall off into the 20's overnight which will
allow the potential for any untreated wet roadways to refreeze.
Also some patchy areas of light snow will be possibile with
additional snow accumulation of an inch or less. Please allow
extra time if traveling overnight.

Gaines

1108 PM EST Tue Feb 9 2016

... Refreezing on area roads possibile overnight along with patchy
light snow...

Temperatures will fall off into the 20's overnight which will
allow the potential for any untreated wet roadways to refreeze.
Also some patchy areas of light snow will be possibile with
additional snow accumulation of an inch or less. Please allow
extra time if traveling overnight.

Gaines